sensor_id;sensor_type;location;lat;lon;timestamp;temperature;humidity
25951;DHT22;13748;52.240;6.002;2023-04-16T00:02:04;9.20;99.90
25951;DHT22;13748;52.240;6.002;2023-04-16T00:04:31;9.20;99.90
25951;DHT22;13748;52.240;6.002;2023-04-16T00:06:58;9.20;99.90
25951;DHT22;13748;52.240;6.002;2023-04-16T00:09:29;9.20;99.90
25951;DHT22;13748;52.240;6.002;2023-04-16T00:11:56;9.10;99.90
25951;DHT22;13748;52.240;6.002;2023-04-16T00:14:23;9.30;99.90
25951;DHT22;13748;52.240;6.002;2023-04-16T00:16:50;9.10;99.90
25951;DHT22;13748;52.240;6.002;2023-04-16T00:19:16;9.10;99.90
25951;DHT22;13748;52.240;6.002;2023-04-16T00:21:43;9.20;99.90
25951;DHT22;13748;52.240;6.002;2023-04-16T00:24:10;9.20;99.90
25951;DHT22;13748;52.240;6.002;2023-04-16T00:26:37;9.20;99.90
25951;DHT22;13748;52.240;6.002;2023-04-16T00:29:04;9.20;99.90
25951;DHT22;13748;52.240;6.002;2023-04-16T00:31:32;9.20;99.90
25951;DHT22;13748;52.240;6.002;2023-04-16T00:33:59;9.20;99.90
25951;DHT22;13748;52.240;6.002;2023-04-16T00:36:27;9.20;99.90
25951;DHT22;13748;52.240;6.002;2023-04-16T00:38:54;9.20;99.90
25951;DHT22;13748;52.240;6.002;2023-04-16T00:41:24;9.20;99.90
25951;DHT22;13748;52.240;6.002;2023-04-16T00:43:52;9.30;99.90
25951;DHT22;13748;52.240;6.002;2023-04-16T00:46:19;9.30;99.90
25951;DHT22;13748;52.240;6.002;2023-04-16T00:48:52;9.20;99.90
25951;DHT22;13748;52.240;6.002;2023-04-16T00:51:20;9.20;99.90
25951;DHT22;13748;52.240;6.002;2023-04-16T00:53:49;9.20;99.90
25951;DHT22;13748;52.240;6.002;2023-04-16T00:56:17;9.20;99.90
25951;DHT22;13748;52.240;6.002;2023-04-16T00:58:44;9.20;99.90
25951;DHT22;13748;52.240;6.002;2023-04-16T01:01:11;9.30;99.90
25951;DHT22;13748;52.240;6.002;2023-04-16T01:03:43;9.30;99.90
25951;DHT22;13748;52.240;6.002;2023-04-16T01:06:12;9.30;99.90
25951;DHT22;13748;52.240;6.002;2023-04-16T01:08:39;9.30;99.90
25951;DHT22;13748;52.240;6.002;2023-04-16T01:11:06;9.30;99.90
25951;DHT22;13748;52.240;6.002;2023-04-16T01:13:34;9.30;99.90
25951;DHT22;13748;52.240;6.002;2023-04-16T01:16:06;9.30;99.90
25951;DHT22;13748;52.240;6.002;2023-04-16T01:18:34;9.30;99.90
25951;DHT22;13748;52.240;6.002;2023-04-16T01:21:01;9.30;99.90
25951;DHT22;13748;52.240;6.002;2023-04-16T01:23:29;9.40;99.90
25951;DHT22;13748;52.240;6.002;2023-04-16T01:25:56;9.40;99.90
25951;DHT22;13748;52.240;6.002;2023-04-16T01:28:23;9.40;99.90
25951;DHT22;13748;52.240;6.002;2023-04-16T01:30:50;9.40;99.90
25951;DHT22;13748;52.240;6.002;2023-04-16T01:33:17;9.40;99.90
25951;DHT22;13748;52.240;6.002;2023-04-16T01:35:43;9.40;99.90
25951;DHT22;13748;52.240;6.002;2023-04-16T01:38:10;9.50;99.90
25951;DHT22;13748;52.240;6.002;2023-04-16T01:40:38;9.50;99.90
25951;DHT22;13748;52.240;6.002;2023-04-16T01:43:05;9.50;99.90
25951;DHT22;13748;52.240;6.002;2023-04-16T01:45:32;9.50;99.90
25951;DHT22;13748;52.240;6.002;2023-04-16T01:48:00;9.50;99.90
25951;DHT22;13748;52.240;6.002;2023-04-16T01:50:27;9.50;99.90
25951;DHT22;13748;52.240;6.002;2023-04-16T01:52:55;9.40;99.90
25951;DHT22;13748;52.240;6.002;2023-04-16T01:55:22;9.40;99.90
25951;DHT22;13748;52.240;6.002;2023-04-16T01:57:50;9.50;99.90
25951;DHT22;13748;52.240;6.002;2023-04-16T02:00:16;9.50;99.90
25951;DHT22;13748;52.240;6.002;2023-04-16T02:02:43;9.40;99.90
25951;DHT22;13748;52.240;6.002;2023-04-16T02:05:11;9.40;99.90
25951;DHT22;13748;52.240;6.002;2023-04-16T02:07:37;9.40;99.90
25951;DHT22;13748;52.240;6.002;2023-04-16T02:10:05;9.40;99.90
25951;DHT22;13748;52.240;6.002;2023-04-16T02:12:33;9.40;99.90
25951;DHT22;13748;52.240;6.002;2023-04-16T02:14:59;9.50;99.90
25951;DHT22;13748;52.240;6.002;2023-04-16T02:17:26;9.40;99.90
25951;DHT22;13748;52.240;6.002;2023-04-16T02:19:53;9.40;99.90
25951;DHT22;13748;52.240;6.002;2023-04-16T02:22:20;9.40;99.90
25951;DHT22;13748;52.240;6.002;2023-04-16T02:24:46;9.40;99.90
25951;DHT22;13748;52.240;6.002;2023-04-16T02:27:13;9.40;99.90
25951;DHT22;13748;52.240;6.002;2023-04-16T02:29:40;9.40;99.90
25951;DHT22;13748;52.240;6.002;2023-04-16T02:32:07;9.40;99.90
25951;DHT22;13748;52.240;6.002;2023-04-16T02:34:34;9.40;99.90
25951;DHT22;13748;52.240;6.002;2023-04-16T02:37:01;9.40;99.90
25951;DHT22;13748;52.240;6.002;2023-04-16T02:39:27;9.40;99.90
25951;DHT22;13748;52.240;6.002;2023-04-16T02:41:54;9.40;99.90
25951;DHT22;13748;52.240;6.002;2023-04-16T02:44:21;9.40;99.90
25951;DHT22;13748;52.240;6.002;2023-04-16T02:46:48;9.40;99.90
25951;DHT22;13748;52.240;6.002;2023-04-16T02:49:15;9.40;99.90
25951;DHT22;13748;52.240;6.002;2023-04-16T02:51:41;9.40;99.90
25951;DHT22;13748;52.240;6.002;2023-04-16T02:54:08;9.40;99.90
25951;DHT22;13748;52.240;6.002;2023-04-16T02:56:35;9.30;99.90
25951;DHT22;13748;52.240;6.002;2023-04-16T02:59:02;9.40;99.90
25951;DHT22;13748;52.240;6.002;2023-04-16T03:01:29;9.40;99.90
25951;DHT22;13748;52.240;6.002;2023-04-16T03:03:56;9.40;99.90
25951;DHT22;13748;52.240;6.002;2023-04-16T03:06:22;9.50;99.90
25951;DHT22;13748;52.240;6.002;2023-04-16T03:08:49;9.50;99.90
25951;DHT22;13748;52.240;6.002;2023-04-16T03:11:16;9.50;99.90
25951;DHT22;13748;52.240;6.002;2023-04-16T03:13:43;9.40;99.90
25951;DHT22;13748;52.240;6.002;2023-04-16T03:16:10;9.40;99.90
25951;DHT22;13748;52.240;6.002;2023-04-16T03:18:37;9.40;99.90
25951;DHT22;13748;52.240;6.002;2023-04-16T03:21:04;9.50;99.90
25951;DHT22;13748;52.240;6.002;2023-04-16T03:23:31;9.50;99.90
25951;DHT22;13748;52.240;6.002;2023-04-16T03:25:58;9.50;99.90
25951;DHT22;13748;52.240;6.002;2023-04-16T03:28:24;9.50;99.90
25951;DHT22;13748;52.240;6.002;2023-04-16T03:30:52;9.50;99.90
25951;DHT22;13748;52.240;6.002;2023-04-16T03:33:19;9.50;99.90
25951;DHT22;13748;52.240;6.002;2023-04-16T03:35:53;9.60;99.90
25951;DHT22;13748;52.240;6.002;2023-04-16T03:38:20;9.50;99.90
25951;DHT22;13748;52.240;6.002;2023-04-16T03:40:47;9.50;99.90
25951;DHT22;13748;52.240;6.002;2023-04-16T03:43:13;9.50;99.90
25951;DHT22;13748;52.240;6.002;2023-04-16T03:45:44;9.50;99.90
25951;DHT22;13748;52.240;6.002;2023-04-16T03:48:11;9.50;99.90
25951;DHT22;13748;52.240;6.002;2023-04-16T03:50:38;9.50;99.90
25951;DHT22;13748;52.240;6.002;2023-04-16T03:53:05;9.60;99.90
25951;DHT22;13748;52.240;6.002;2023-04-16T03:55:31;9.60;99.90
25951;DHT22;13748;52.240;6.002;2023-04-16T03:57:58;9.50;99.90
25951;DHT22;13748;52.240;6.002;2023-04-16T04:00:28;9.50;99.90
25951;DHT22;13748;52.240;6.002;2023-04-16T04:02:56;9.50;99.90
25951;DHT22;13748;52.240;6.002;2023-04-16T04:05:23;9.50;99.90
25951;DHT22;13748;52.240;6.002;2023-04-16T04:07:50;9.50;99.90
25951;DHT22;13748;52.240;6.002;2023-04-16T04:10:17;9.50;99.90
25951;DHT22;13748;52.240;6.002;2023-04-16T04:12:43;9.50;99.90
25951;DHT22;13748;52.240;6.002;2023-04-16T04:15:10;9.50;99.90
25951;DHT22;13748;52.240;6.002;2023-04-16T04:17:37;9.50;99.90
25951;DHT22;13748;52.240;6.002;2023-04-16T04:20:04;9.50;99.90
25951;DHT22;13748;52.240;6.002;2023-04-16T04:22:31;9.40;99.90
25951;DHT22;13748;52.240;6.002;2023-04-16T04:24:58;9.50;99.90
25951;DHT22;13748;52.240;6.002;2023-04-16T04:27:25;9.50;99.90
25951;DHT22;13748;52.240;6.002;2023-04-16T04:29:52;9.50;99.90
25951;DHT22;13748;52.240;6.002;2023-04-16T04:32:19;9.50;99.90
25951;DHT22;13748;52.240;6.002;2023-04-16T04:34:46;9.50;99.90
25951;DHT22;13748;52.240;6.002;2023-04-16T04:37:15;9.50;99.90
25951;DHT22;13748;52.240;6.002;2023-04-16T04:39:41;9.50;99.90
25951;DHT22;13748;52.240;6.002;2023-04-16T04:42:08;9.60;99.90
25951;DHT22;13748;52.240;6.002;2023-04-16T04:44:35;9.60;99.90
25951;DHT22;13748;52.240;6.002;2023-04-16T04:47:02;9.60;99.90
25951;DHT22;13748;52.240;6.002;2023-04-16T04:49:28;9.50;99.90
25951;DHT22;13748;52.240;6.002;2023-04-16T04:51:56;9.50;99.90
25951;DHT22;13748;52.240;6.002;2023-04-16T04:54:23;9.50;99.90
25951;DHT22;13748;52.240;6.002;2023-04-16T04:56:50;9.50;99.90
25951;DHT22;13748;52.240;6.002;2023-04-16T04:59:19;9.40;99.90
25951;DHT22;13748;52.240;6.002;2023-04-16T05:01:46;9.40;99.90
25951;DHT22;13748;52.240;6.002;2023-04-16T05:04:13;9.40;99.90
25951;DHT22;13748;52.240;6.002;2023-04-16T05:06:40;9.40;99.90
25951;DHT22;13748;52.240;6.002;2023-04-16T05:09:07;9.40;99.90
25951;DHT22;13748;52.240;6.002;2023-04-16T05:11:37;9.40;99.90
25951;DHT22;13748;52.240;6.002;2023-04-16T05:14:04;9.40;99.90
25951;DHT22;13748;52.240;6.002;2023-04-16T05:16:31;9.40;99.90
25951;DHT22;13748;52.240;6.002;2023-04-16T05:18:58;9.40;99.90
25951;DHT22;13748;52.240;6.002;2023-04-16T05:21:25;9.40;99.90
25951;DHT22;13748;52.240;6.002;2023-04-16T05:23:52;9.40;99.90
25951;DHT22;13748;52.240;6.002;2023-04-16T05:26:19;9.40;99.90
25951;DHT22;13748;52.240;6.002;2023-04-16T05:28:46;9.50;99.90
25951;DHT22;13748;52.240;6.002;2023-04-16T05:31:12;9.50;99.90
25951;DHT22;13748;52.240;6.002;2023-04-16T05:33:39;9.50;99.90
25951;DHT22;13748;52.240;6.002;2023-04-16T05:36:06;9.50;99.90
25951;DHT22;13748;52.240;6.002;2023-04-16T05:38:33;9.50;99.90
25951;DHT22;13748;52.240;6.002;2023-04-16T05:40:59;9.50;99.90
25951;DHT22;13748;52.240;6.002;2023-04-16T05:43:26;9.50;99.90
25951;DHT22;13748;52.240;6.002;2023-04-16T05:45:53;9.50;99.90
25951;DHT22;13748;52.240;6.002;2023-04-16T05:48:20;9.50;99.90
25951;DHT22;13748;52.240;6.002;2023-04-16T05:50:46;9.50;99.90
25951;DHT22;13748;52.240;6.002;2023-04-16T05:53:14;9.50;99.90
25951;DHT22;13748;52.240;6.002;2023-04-16T05:55:41;9.50;99.90
25951;DHT22;13748;52.240;6.002;2023-04-16T05:58:08;9.50;99.90
25951;DHT22;13748;52.240;6.002;2023-04-16T06:00:35;9.50;99.90
25951;DHT22;13748;52.240;6.002;2023-04-16T06:03:02;9.60;99.90
25951;DHT22;13748;52.240;6.002;2023-04-16T06:05:29;9.60;99.90
25951;DHT22;13748;52.240;6.002;2023-04-16T06:07:56;9.70;99.90
25951;DHT22;13748;52.240;6.002;2023-04-16T06:10:23;9.70;99.90
25951;DHT22;13748;52.240;6.002;2023-04-16T06:12:50;9.70;99.90
25951;DHT22;13748;52.240;6.002;2023-04-16T06:15:16;9.70;99.90
25951;DHT22;13748;52.240;6.002;2023-04-16T06:17:43;9.80;99.90
25951;DHT22;13748;52.240;6.002;2023-04-16T06:20:10;9.70;99.90
25951;DHT22;13748;52.240;6.002;2023-04-16T06:22:37;9.70;99.90
25951;DHT22;13748;52.240;6.002;2023-04-16T06:25:05;9.70;99.90
25951;DHT22;13748;52.240;6.002;2023-04-16T06:27:32;9.70;99.90
25951;DHT22;13748;52.240;6.002;2023-04-16T06:29:58;9.80;99.90
25951;DHT22;13748;52.240;6.002;2023-04-16T06:32:25;9.80;99.90
25951;DHT22;13748;52.240;6.002;2023-04-16T06:34:52;9.80;99.90
25951;DHT22;13748;52.240;6.002;2023-04-16T06:37:19;9.80;99.90
25951;DHT22;13748;52.240;6.002;2023-04-16T06:39:48;9.80;99.90
25951;DHT22;13748;52.240;6.002;2023-04-16T06:42:15;9.80;99.90
25951;DHT22;13748;52.240;6.002;2023-04-16T06:44:42;9.80;99.90
25951;DHT22;13748;52.240;6.002;2023-04-16T06:47:11;9.90;99.90
25951;DHT22;13748;52.240;6.002;2023-04-16T06:49:38;9.90;99.90
25951;DHT22;13748;52.240;6.002;2023-04-16T06:52:05;9.90;99.90
25951;DHT22;13748;52.240;6.002;2023-04-16T06:54:32;9.90;99.90
25951;DHT22;13748;52.240;6.002;2023-04-16T06:56:59;9.90;99.90
25951;DHT22;13748;52.240;6.002;2023-04-16T06:59:26;10.00;99.90
25951;DHT22;13748;52.240;6.002;2023-04-16T07:01:52;10.10;99.90
25951;DHT22;13748;52.240;6.002;2023-04-16T07:04:20;10.10;99.90
25951;DHT22;13748;52.240;6.002;2023-04-16T07:06:47;10.10;99.90
25951;DHT22;13748;52.240;6.002;2023-04-16T07:09:14;10.10;99.90
25951;DHT22;13748;52.240;6.002;2023-04-16T07:11:42;10.20;99.90
25951;DHT22;13748;52.240;6.002;2023-04-16T07:14:09;10.10;99.90
25951;DHT22;13748;52.240;6.002;2023-04-16T07:16:36;10.10;99.90
25951;DHT22;13748;52.240;6.002;2023-04-16T07:19:03;10.20;99.90
25951;DHT22;13748;52.240;6.002;2023-04-16T07:21:30;10.20;99.90
25951;DHT22;13748;52.240;6.002;2023-04-16T07:23:57;10.20;99.90
25951;DHT22;13748;52.240;6.002;2023-04-16T07:26:24;10.20;99.90
25951;DHT22;13748;52.240;6.002;2023-04-16T07:28:53;10.20;99.90
25951;DHT22;13748;52.240;6.002;2023-04-16T07:31:20;10.30;99.90
25951;DHT22;13748;52.240;6.002;2023-04-16T07:33:47;10.30;99.90
25951;DHT22;13748;52.240;6.002;2023-04-16T07:36:14;10.30;99.90
25951;DHT22;13748;52.240;6.002;2023-04-16T07:38:40;10.30;99.90
25951;DHT22;13748;52.240;6.002;2023-04-16T07:41:07;10.40;99.90
25951;DHT22;13748;52.240;6.002;2023-04-16T07:43:34;10.40;99.90
25951;DHT22;13748;52.240;6.002;2023-04-16T07:46:01;10.40;99.90
25951;DHT22;13748;52.240;6.002;2023-04-16T07:48:28;10.50;99.90
25951;DHT22;13748;52.240;6.002;2023-04-16T07:50:55;10.50;99.90
25951;DHT22;13748;52.240;6.002;2023-04-16T07:53:21;10.50;99.90
25951;DHT22;13748;52.240;6.002;2023-04-16T07:55:48;10.50;99.90
25951;DHT22;13748;52.240;6.002;2023-04-16T07:58:15;10.50;99.90
25951;DHT22;13748;52.240;6.002;2023-04-16T08:00:45;10.50;99.90
25951;DHT22;13748;52.240;6.002;2023-04-16T08:03:11;10.60;99.90
25951;DHT22;13748;52.240;6.002;2023-04-16T08:05:39;10.60;99.90
25951;DHT22;13748;52.240;6.002;2023-04-16T08:08:05;10.70;99.90
25951;DHT22;13748;52.240;6.002;2023-04-16T08:10:32;10.60;99.90
25951;DHT22;13748;52.240;6.002;2023-04-16T08:13:00;10.70;99.90
25951;DHT22;13748;52.240;6.002;2023-04-16T08:15:27;10.70;99.90
25951;DHT22;13748;52.240;6.002;2023-04-16T08:17:54;10.70;99.90
25951;DHT22;13748;52.240;6.002;2023-04-16T08:20:21;10.80;99.90
25951;DHT22;13748;52.240;6.002;2023-04-16T08:22:54;10.80;99.90
25951;DHT22;13748;52.240;6.002;2023-04-16T08:25:25;10.90;99.90
25951;DHT22;13748;52.240;6.002;2023-04-16T08:27:52;11.00;99.90
25951;DHT22;13748;52.240;6.002;2023-04-16T08:30:19;11.20;99.90
25951;DHT22;13748;52.240;6.002;2023-04-16T08:32:47;11.10;99.90
25951;DHT22;13748;52.240;6.002;2023-04-16T08:35:16;11.20;99.90
25951;DHT22;13748;52.240;6.002;2023-04-16T08:37:42;11.20;99.90
25951;DHT22;13748;52.240;6.002;2023-04-16T08:40:09;11.40;99.90
25951;DHT22;13748;52.240;6.002;2023-04-16T08:42:50;11.40;99.90
25951;DHT22;13748;52.240;6.002;2023-04-16T08:45:21;11.50;99.90
25951;DHT22;13748;52.240;6.002;2023-04-16T08:47:51;11.60;99.90
25951;DHT22;13748;52.240;6.002;2023-04-16T08:50:23;11.60;99.90
25951;DHT22;13748;52.240;6.002;2023-04-16T08:53:04;11.60;99.90
25951;DHT22;13748;52.240;6.002;2023-04-16T08:55:36;11.70;99.90
25951;DHT22;13748;52.240;6.002;2023-04-16T08:58:09;11.90;99.90
25951;DHT22;13748;52.240;6.002;2023-04-16T09:00:38;12.10;99.90
25951;DHT22;13748;52.240;6.002;2023-04-16T09:03:07;12.20;99.90
25951;DHT22;13748;52.240;6.002;2023-04-16T09:05:35;12.40;99.90
25951;DHT22;13748;52.240;6.002;2023-04-16T09:08:04;12.50;99.90
25951;DHT22;13748;52.240;6.002;2023-04-16T09:10:32;12.60;99.90
25951;DHT22;13748;52.240;6.002;2023-04-16T09:12:59;12.80;99.90
25951;DHT22;13748;52.240;6.002;2023-04-16T09:15:27;12.90;99.90
25951;DHT22;13748;52.240;6.002;2023-04-16T09:17:55;12.90;99.90
25951;DHT22;13748;52.240;6.002;2023-04-16T09:20:25;13.00;99.90
25951;DHT22;13748;52.240;6.002;2023-04-16T09:22:51;13.10;99.90
25951;DHT22;13748;52.240;6.002;2023-04-16T09:25:19;13.30;99.90
25951;DHT22;13748;52.240;6.002;2023-04-16T09:27:50;13.50;99.90
25951;DHT22;13748;52.240;6.002;2023-04-16T09:32:47;13.70;99.90
25951;DHT22;13748;52.240;6.002;2023-04-16T09:35:19;13.80;99.90
25951;DHT22;13748;52.240;6.002;2023-04-16T09:37:57;14.10;99.90
25951;DHT22;13748;52.240;6.002;2023-04-16T09:40:25;14.20;99.90
25951;DHT22;13748;52.240;6.002;2023-04-16T09:42:59;14.40;99.90
25951;DHT22;13748;52.240;6.002;2023-04-16T09:45:30;14.40;99.90
25951;DHT22;13748;52.240;6.002;2023-04-16T09:48:02;14.40;99.90
25951;DHT22;13748;52.240;6.002;2023-04-16T09:50:30;14.40;99.90
25951;DHT22;13748;52.240;6.002;2023-04-16T09:53:00;14.40;99.90
25951;DHT22;13748;52.240;6.002;2023-04-16T09:55:28;14.60;99.90
25951;DHT22;13748;52.240;6.002;2023-04-16T09:58:01;14.60;99.90
25951;DHT22;13748;52.240;6.002;2023-04-16T10:00:28;14.60;99.90
25951;DHT22;13748;52.240;6.002;2023-04-16T10:03:04;14.80;99.90
25951;DHT22;13748;52.240;6.002;2023-04-16T10:05:31;15.00;99.90
25951;DHT22;13748;52.240;6.002;2023-04-16T10:07:59;15.20;99.90
25951;DHT22;13748;52.240;6.002;2023-04-16T10:10:28;15.30;99.90
25951;DHT22;13748;52.240;6.002;2023-04-16T10:12:55;15.50;99.90
25951;DHT22;13748;52.240;6.002;2023-04-16T10:15:22;15.40;99.90
25951;DHT22;13748;52.240;6.002;2023-04-16T10:17:50;15.20;99.90
25951;DHT22;13748;52.240;6.002;2023-04-16T10:20:17;15.20;99.90
25951;DHT22;13748;52.240;6.002;2023-04-16T10:22:45;15.40;99.90
25951;DHT22;13748;52.240;6.002;2023-04-16T10:25:12;15.60;99.90
25951;DHT22;13748;52.240;6.002;2023-04-16T10:27:39;15.60;99.90
25951;DHT22;13748;52.240;6.002;2023-04-16T10:30:08;15.70;99.90
25951;DHT22;13748;52.240;6.002;2023-04-16T10:32:35;15.80;99.90
25951;DHT22;13748;52.240;6.002;2023-04-16T10:35:04;15.80;99.90
25951;DHT22;13748;52.240;6.002;2023-04-16T10:37:31;15.80;99.90
25951;DHT22;13748;52.240;6.002;2023-04-16T10:40:00;15.80;99.90
25951;DHT22;13748;52.240;6.002;2023-04-16T10:42:27;15.60;99.90
25951;DHT22;13748;52.240;6.002;2023-04-16T10:45:00;15.50;99.90
25951;DHT22;13748;52.240;6.002;2023-04-16T10:47:29;15.40;99.90
25951;DHT22;13748;52.240;6.002;2023-04-16T10:49:57;15.40;99.90
25951;DHT22;13748;52.240;6.002;2023-04-16T10:52:28;15.40;99.90
25951;DHT22;13748;52.240;6.002;2023-04-16T10:54:58;15.30;99.90
25951;DHT22;13748;52.240;6.002;2023-04-16T10:57:28;15.30;99.90
25951;DHT22;13748;52.240;6.002;2023-04-16T10:59:57;15.20;99.90
25951;DHT22;13748;52.240;6.002;2023-04-16T11:02:27;15.30;99.90
25951;DHT22;13748;52.240;6.002;2023-04-16T11:04:56;15.30;99.90
25951;DHT22;13748;52.240;6.002;2023-04-16T11:07:36;15.30;99.90
25951;DHT22;13748;52.240;6.002;2023-04-16T11:10:05;15.40;99.90
25951;DHT22;13748;52.240;6.002;2023-04-16T11:12:45;15.50;99.90
25951;DHT22;13748;52.240;6.002;2023-04-16T11:15:13;15.70;99.90
25951;DHT22;13748;52.240;6.002;2023-04-16T11:17:43;15.80;99.90
25951;DHT22;13748;52.240;6.002;2023-04-16T11:20:21;15.90;99.90
25951;DHT22;13748;52.240;6.002;2023-04-16T11:22:54;15.90;99.90
25951;DHT22;13748;52.240;6.002;2023-04-16T11:25:27;16.00;99.90
25951;DHT22;13748;52.240;6.002;2023-04-16T11:27:57;16.00;99.90
25951;DHT22;13748;52.240;6.002;2023-04-16T11:30:43;15.70;99.90
25951;DHT22;13748;52.240;6.002;2023-04-16T11:33:16;15.60;99.90
25951;DHT22;13748;52.240;6.002;2023-04-16T11:35:43;15.60;99.90
25951;DHT22;13748;52.240;6.002;2023-04-16T11:38:11;15.60;99.90
25951;DHT22;13748;52.240;6.002;2023-04-16T11:40:41;15.80;99.90
25951;DHT22;13748;52.240;6.002;2023-04-16T11:43:15;15.80;99.90
25951;DHT22;13748;52.240;6.002;2023-04-16T11:46:05;15.90;99.90
25951;DHT22;13748;52.240;6.002;2023-04-16T11:48:56;16.00;99.90
25951;DHT22;13748;52.240;6.002;2023-04-16T11:51:23;16.10;99.90
25951;DHT22;13748;52.240;6.002;2023-04-16T11:53:52;16.10;99.90
25951;DHT22;13748;52.240;6.002;2023-04-16T11:56:29;16.10;99.90
25951;DHT22;13748;52.240;6.002;2023-04-16T11:59:20;16.20;99.90
25951;DHT22;13748;52.240;6.002;2023-04-16T12:01:50;16.30;99.90
25951;DHT22;13748;52.240;6.002;2023-04-16T12:04:20;16.30;99.90
25951;DHT22;13748;52.240;6.002;2023-04-16T12:07:10;16.30;99.90
25951;DHT22;13748;52.240;6.002;2023-04-16T12:09:41;16.40;99.90
25951;DHT22;13748;52.240;6.002;2023-04-16T12:12:27;16.30;99.90
25951;DHT22;13748;52.240;6.002;2023-04-16T12:14:57;16.20;99.90
25951;DHT22;13748;52.240;6.002;2023-04-16T12:17:34;16.20;99.90
25951;DHT22;13748;52.240;6.002;2023-04-16T12:20:09;16.30;99.90
25951;DHT22;13748;52.240;6.002;2023-04-16T12:22:38;16.30;99.90
25951;DHT22;13748;52.240;6.002;2023-04-16T12:25:13;16.30;99.90
25951;DHT22;13748;52.240;6.002;2023-04-16T12:27:53;16.30;99.90
25951;DHT22;13748;52.240;6.002;2023-04-16T12:30:22;16.20;99.90
25951;DHT22;13748;52.240;6.002;2023-04-16T12:32:52;16.30;99.90
25951;DHT22;13748;52.240;6.002;2023-04-16T12:35:32;16.30;99.90
25951;DHT22;13748;52.240;6.002;2023-04-16T12:38:00;16.40;99.90
25951;DHT22;13748;52.240;6.002;2023-04-16T12:40:30;16.40;99.90
25951;DHT22;13748;52.240;6.002;2023-04-16T12:42:56;16.30;99.90
25951;DHT22;13748;52.240;6.002;2023-04-16T12:45:23;16.20;99.90
25951;DHT22;13748;52.240;6.002;2023-04-16T12:47:51;16.40;99.90
25951;DHT22;13748;52.240;6.002;2023-04-16T12:50:17;16.30;99.90
25951;DHT22;13748;52.240;6.002;2023-04-16T12:52:47;16.40;99.90
25951;DHT22;13748;52.240;6.002;2023-04-16T12:55:14;16.50;99.90
25951;DHT22;13748;52.240;6.002;2023-04-16T12:57:41;16.50;99.90
25951;DHT22;13748;52.240;6.002;2023-04-16T13:00:09;16.40;99.90
25951;DHT22;13748;52.240;6.002;2023-04-16T13:02:37;16.30;99.90
25951;DHT22;13748;52.240;6.002;2023-04-16T13:05:04;16.10;99.90
25951;DHT22;13748;52.240;6.002;2023-04-16T13:07:31;16.00;99.90
25951;DHT22;13748;52.240;6.002;2023-04-16T13:10:00;15.90;99.90
25951;DHT22;13748;52.240;6.002;2023-04-16T13:12:27;15.90;99.90
25951;DHT22;13748;52.240;6.002;2023-04-16T13:14:57;16.00;99.90
25951;DHT22;13748;52.240;6.002;2023-04-16T13:17:24;16.10;99.90
25951;DHT22;13748;52.240;6.002;2023-04-16T13:19:50;16.10;99.90
25951;DHT22;13748;52.240;6.002;2023-04-16T13:22:17;16.10;99.90
25951;DHT22;13748;52.240;6.002;2023-04-16T13:24:44;15.90;99.90
25951;DHT22;13748;52.240;6.002;2023-04-16T13:27:11;15.90;99.90
25951;DHT22;13748;52.240;6.002;2023-04-16T13:29:41;16.00;99.90
25951;DHT22;13748;52.240;6.002;2023-04-16T13:32:08;16.10;99.90
25951;DHT22;13748;52.240;6.002;2023-04-16T13:34:35;16.10;99.90
25951;DHT22;13748;52.240;6.002;2023-04-16T13:37:02;16.10;99.90
25951;DHT22;13748;52.240;6.002;2023-04-16T13:39:29;16.20;99.90
25951;DHT22;13748;52.240;6.002;2023-04-16T13:41:56;16.20;99.90
25951;DHT22;13748;52.240;6.002;2023-04-16T13:44:23;16.10;99.90
25951;DHT22;13748;52.240;6.002;2023-04-16T13:46:49;16.00;99.90
25951;DHT22;13748;52.240;6.002;2023-04-16T13:49:17;15.70;99.90
25951;DHT22;13748;52.240;6.002;2023-04-16T13:51:44;15.60;99.90
25951;DHT22;13748;52.240;6.002;2023-04-16T13:54:10;15.50;99.90
25951;DHT22;13748;52.240;6.002;2023-04-16T13:56:37;15.40;99.90
25951;DHT22;13748;52.240;6.002;2023-04-16T13:59:04;15.50;99.90
25951;DHT22;13748;52.240;6.002;2023-04-16T14:01:31;15.40;99.90
25951;DHT22;13748;52.240;6.002;2023-04-16T14:04:00;15.30;99.90
25951;DHT22;13748;52.240;6.002;2023-04-16T14:06:32;15.20;99.90
25951;DHT22;13748;52.240;6.002;2023-04-16T14:08:59;15.10;99.90
25951;DHT22;13748;52.240;6.002;2023-04-16T14:11:26;15.10;99.90
25951;DHT22;13748;52.240;6.002;2023-04-16T14:13:53;15.30;99.90
25951;DHT22;13748;52.240;6.002;2023-04-16T14:16:20;15.20;99.90
25951;DHT22;13748;52.240;6.002;2023-04-16T14:18:47;15.10;99.90
25951;DHT22;13748;52.240;6.002;2023-04-16T14:21:14;15.00;99.90
25951;DHT22;13748;52.240;6.002;2023-04-16T14:23:41;15.00;99.90
25951;DHT22;13748;52.240;6.002;2023-04-16T14:26:07;14.90;99.90
25951;DHT22;13748;52.240;6.002;2023-04-16T14:28:34;15.00;99.90
25951;DHT22;13748;52.240;6.002;2023-04-16T14:31:01;15.10;99.90
25951;DHT22;13748;52.240;6.002;2023-04-16T14:33:28;15.30;99.90
25951;DHT22;13748;52.240;6.002;2023-04-16T14:35:55;15.30;99.90
25951;DHT22;13748;52.240;6.002;2023-04-16T14:38:22;15.30;99.90
25951;DHT22;13748;52.240;6.002;2023-04-16T14:40:50;15.20;99.90
25951;DHT22;13748;52.240;6.002;2023-04-16T14:43:17;15.20;99.90
25951;DHT22;13748;52.240;6.002;2023-04-16T14:45:43;15.20;99.90
25951;DHT22;13748;52.240;6.002;2023-04-16T14:48:14;15.10;99.90
25951;DHT22;13748;52.240;6.002;2023-04-16T14:50:41;15.10;99.90
25951;DHT22;13748;52.240;6.002;2023-04-16T14:53:13;15.00;99.90
25951;DHT22;13748;52.240;6.002;2023-04-16T14:55:40;15.00;99.90
25951;DHT22;13748;52.240;6.002;2023-04-16T14:58:07;14.90;99.90
25951;DHT22;13748;52.240;6.002;2023-04-16T15:00:33;15.00;99.90
25951;DHT22;13748;52.240;6.002;2023-04-16T15:03:01;14.90;99.90
25951;DHT22;13748;52.240;6.002;2023-04-16T15:05:29;14.90;99.90
25951;DHT22;13748;52.240;6.002;2023-04-16T15:07:57;15.00;99.90
25951;DHT22;13748;52.240;6.002;2023-04-16T15:10:23;15.00;99.90
25951;DHT22;13748;52.240;6.002;2023-04-16T15:12:50;15.10;99.90
25951;DHT22;13748;52.240;6.002;2023-04-16T15:15:17;15.10;99.90
25951;DHT22;13748;52.240;6.002;2023-04-16T15:17:43;15.10;99.90
25951;DHT22;13748;52.240;6.002;2023-04-16T15:20:11;15.00;99.90
25951;DHT22;13748;52.240;6.002;2023-04-16T15:22:39;14.90;99.90
25951;DHT22;13748;52.240;6.002;2023-04-16T15:25:06;14.90;99.90
25951;DHT22;13748;52.240;6.002;2023-04-16T15:27:33;14.80;99.90
25951;DHT22;13748;52.240;6.002;2023-04-16T15:30:00;14.80;99.90
25951;DHT22;13748;52.240;6.002;2023-04-16T15:32:27;14.80;99.90
25951;DHT22;13748;52.240;6.002;2023-04-16T15:34:54;14.80;99.90
25951;DHT22;13748;52.240;6.002;2023-04-16T15:37:20;14.80;99.90
25951;DHT22;13748;52.240;6.002;2023-04-16T15:39:47;14.80;99.90
25951;DHT22;13748;52.240;6.002;2023-04-16T15:42:14;14.70;99.90
25951;DHT22;13748;52.240;6.002;2023-04-16T15:44:41;14.70;99.90
25951;DHT22;13748;52.240;6.002;2023-04-16T15:47:08;14.50;99.90